EDT,Max TemperatureF,Mean TemperatureF,Min TemperatureF,Max Dew PointF,MeanDew PointF,Min DewpointF,Max Humidity, Mean Humidity, Min Humidity, Max Sea Level PressureIn, Mean Sea Level PressureIn, Min Sea Level PressureIn, Max VisibilityMiles, Mean VisibilityMiles, Min VisibilityMiles, Max Wind SpeedMPH, Mean Wind SpeedMPH, Max Gust SpeedMPH,PrecipitationIn, CloudCover, Events, WindDirDegrees
2013-10-1,79,61,43,62,51,42,100,73,45,30.02,29.96,29.88,10,6,0,7,0,9,0.00,3,Fog,40
2013-10-2,82,65,47,61,53,47,96,71,45,30.01,29.95,29.90,10,6,1,14,2,20,0.00,1,,248
2013-10-3,77,62,47,60,52,46,100,71,41,30.13,30.06,30.01,10,7,2,7,1,22,0.00,5,,130
2013-10-4,80,67,54,65,60,53,93,78,62,30.05,30.02,29.96,10,10,7,8,2,12,T,2,Rain,326
2013-10-5,76,68,60,64,60,57,97,83,68,30.11,30.06,30.01,10,8,1,8,2,18,0.09,7,Rain,338
2013-10-6,65,62,59,61,59,57,97,91,84,30.11,30.08,30.03,10,6,2,13,3,18,0.54,8,Rain,74
2013-10-7,76,64,51,69,63,48,93,83,72,30.01,29.85,29.70,10,8,0,22,5,36,0.64,7,Fog-Rain,186
2013-10-8,67,55,43,50,45,41,100,71,42,30.35,30.17,29.98,10,7,0,13,3,21,0.00,0,Fog,17
2013-10-9,65,53,41,49,43,38,93,66,39,30.44,30.36,30.32,10,10,10,13,2,20,0.00,0,,27
2013-10-10,57,50,42,47,45,41,96,79,62,30.32,30.23,30.13,10,10,10,9,3,12,T,4,,3
2013-10-11,71,61,51,57,48,43,83,70,57,30.12,30.09,30.04,10,10,10,14,4,16,0.00,6,,8
2013-10-12,75,60,45,54,49,43,93,69,44,30.32,30.21,30.12,10,10,10,16,5,26,0.00,2,,48
2013-10-13,68,56,44,50,47,44,100,76,52,30.40,30.35,30.32,10,10,3,12,3,16,0.00,2,,88
2013-10-14,69,55,40,51,46,39,96,71,45,30.36,30.31,30.22,10,10,8,8,1,10,0.00,3,,203
2013-10-15,73,60,46,57,49,42,100,74,48,30.25,30.18,30.11,10,10,8,9,1,14,0.00,3,,266
2013-10-16,64,55,46,56,50,44,93,79,64,30.12,30.02,29.89,10,10,10,6,1,9,0.00,6,,153
2013-10-17,75,68,60,61,58,52,90,67,43,29.89,29.79,29.64,10,10,8,13,3,21,T,6,Rain,197
2013-10-18,68,56,44,63,47,39,88,63,36,29.96,29.79,29.61,10,10,9,17,9,26,T,2,Rain,256
2013-10-19,66,52,38,52,42,38,93,71,37,29.97,29.88,29.73,10,10,7,14,1,20,0.09,2,Rain,197
2013-10-20,62,51,39,52,42,34,100,73,35,30.04,29.86,29.73,10,8,0,16,4,23,0.01,1,Fog,243
2013-10-21,67,51,35,41,38,33,97,64,32,30.13,30.04,29.96,10,10,10,9,2,,0.00,0,,188
2013-10-22,62,49,36,49,44,38,93,75,49,29.94,29.81,29.73,10,10,10,6,3,,T,3,,219
2013-10-23,55,44,33,41,34,31,100,79,41,29.82,29.73,29.62,10,7,0,8,1,,T,5,Fog,283
2013-10-24,54,43,31,35,30,26,92,61,37,29.96,29.86,29.74,10,10,10,17,7,30,0.00,1,,249
2013-10-25,52,43,33,33,30,27,85,61,41,30.19,30.09,29.97,10,10,10,12,7,18,0.00,4,,264
2013-10-26,55,42,29,33,29,25,92,57,31,30.19,30.04,29.86,10,10,10,22,6,31,0.00,2,,204
2013-10-27,58,46,34,32,30,28,82,51,33,30.09,29.94,29.82,10,10,10,17,6,25,0.00,4,,254
2013-10-28,61,45,28,35,31,27,92,62,35,30.33,30.19,30.10,10,10,2,16,3,22,0.00,1,,281
2013-10-29,51,41,31,29,26,23,85,57,39,30.44,30.39,30.35,10,10,10,7,4,,0.00,4,,5
2013-10-30,56,44,32,44,36,28,93,78,59,30.34,30.26,30.17,10,10,6,6,1,,T,4,Rain,152
2013-10-31,63,49,35,59,45,33,100,93,83,30.23,30.07,29.76,9,3,0,9,1,20,0.24,7,Fog-Rain,185